Time;durP1;ratioP1;P1;durP2;ratioP2;P2;SDS_P1;SDS_P2;PMS_P1;PMS_P2;Temp;Humidity;BMP_temperature;BMP_pressure;BME280_temperature;BME280_humidity;BME280_pressure;Samples;Min_cycle;Max_cycle;Signal;HPM_P1;HPM_P2
2022/01/03 00:00:51;;;;;;;9.57;5.75;;;;;;;;;;20913289;28;20130;-58
2022/01/03 00:10:53;;;;;;;8.63;6.10;;;;;;;;;;20913250;28;20131;-59
2022/01/03 00:20:58;;;;;;;10.52;6.05;;;;;;;;;;20912105;28;20048;-58
2022/01/03 00:31:01;;;;;;;10.52;6.55;;;;;;;;;;20911834;28;20095;-58
2022/01/03 00:41:04;;;;;;;10.27;6.72;;;;;;;;;;20916650;28;20060;-59
2022/01/03 00:51:06;;;;;;;9.52;6.43;;;;;;;;;;20927193;28;20143;-59
2022/01/03 01:01:08;;;;;;;7.82;5.40;;;;;;;;;;20925531;28;20053;-58
2022/01/03 01:11:10;;;;;;;10.15;6.10;;;;;;;;;;20926110;28;20113;-57
2022/01/03 01:21:14;;;;;;;7.50;5.60;;;;;;;;;;20925562;28;20465;-57
2022/01/03 01:31:17;;;;;;;9.02;6.63;;;;;;;;;;20925256;28;20505;-60
2022/01/03 01:41:21;;;;;;;8.02;5.38;;;;;;;;;;20923702;28;20057;-57
2022/01/03 01:51:25;;;;;;;8.75;5.60;;;;;;;;;;20922038;28;20061;-58
2022/01/03 02:01:38;;;;;;;9.00;5.93;;;;;;;;;;20922036;28;20103;-59
2022/01/03 02:11:49;;;;;;;9.50;6.40;;;;;;;;;;20921843;28;20045;-58
2022/01/03 02:21:53;;;;;;;8.75;6.07;;;;;;;;;;20921119;28;20128;-57
2022/01/03 02:31:55;;;;;;;9.52;6.05;;;;;;;;;;20919813;28;20045;-59
2022/01/03 02:41:58;;;;;;;9.00;6.30;;;;;;;;;;20918946;28;20057;-58
2022/01/03 02:52:09;;;;;;;9.35;5.50;;;;;;;;;;20918279;28;20065;-57
2022/01/03 03:02:14;;;;;;;8.17;5.60;;;;;;;;;;20916951;28;20049;-57
2022/01/03 03:12:21;;;;;;;8.75;6.15;;;;;;;;;;20916587;28;20088;-58
2022/01/03 03:22:27;;;;;;;8.43;5.72;;;;;;;;;;20916150;28;20049;-59
2022/01/03 03:32:35;;;;;;;10.88;6.60;;;;;;;;;;20916201;28;20048;-58
2022/01/03 03:42:57;;;;;;;10.20;6.68;;;;;;;;;;20914160;28;20183;-59
2022/01/03 03:53:20;;;;;;;9.77;6.82;;;;;;;;;;20913918;28;20456;-58
2022/01/03 04:03:30;;;;;;;10.98;6.78;;;;;;;;;;20913027;28;20060;-58
2022/01/03 04:13:36;;;;;;;8.38;6.55;;;;;;;;;;20911903;28;20195;-58
2022/01/03 04:23:45;;;;;;;7.95;6.38;;;;;;;;;;20912358;28;20056;-59
2022/01/03 04:33:48;;;;;;;8.80;6.10;;;;;;;;;;20911812;28;20049;-58
2022/01/03 04:43:51;;;;;;;8.20;6.20;;;;;;;;;;20911072;28;20056;-57
2022/01/03 04:53:58;;;;;;;8.77;6.05;;;;;;;;;;20910545;28;20088;-56
2022/01/03 05:04:01;;;;;;;8.80;6.38;;;;;;;;;;20910583;28;20048;-57
2022/01/03 05:14:04;;;;;;;10.07;6.68;;;;;;;;;;20910497;28;20055;-58
2022/01/03 05:24:07;;;;;;;8.80;6.55;;;;;;;;;;20909994;28;20049;-59
2022/01/03 05:34:10;;;;;;;12.57;8.27;;;;;;;;;;20923740;28;20049;-58
2022/01/03 05:44:13;;;;;;;9.68;6.40;;;;;;;;;;20923264;28;20053;-57
2022/01/03 05:54:16;;;;;;;11.35;6.90;;;;;;;;;;20922438;28;20053;-58
2022/01/03 06:04:24;;;;;;;10.13;6.53;;;;;;;;;;20922179;28;20049;-58
2022/01/03 06:14:27;;;;;;;10.85;6.72;;;;;;;;;;20919601;28;20534;-58
2022/01/03 06:24:29;;;;;;;9.52;6.82;;;;;;;;;;20919692;28;20055;-58
2022/01/03 06:34:33;;;;;;;11.30;6.80;;;;;;;;;;20919669;28;20056;-57
2022/01/03 06:44:36;;;;;;;11.05;6.38;;;;;;;;;;20918634;28;20045;-57
2022/01/03 06:54:40;;;;;;;10.98;6.78;;;;;;;;;;20917924;28;20052;-55
2022/01/03 07:05:01;;;;;;;11.77;7.47;;;;;;;;;;20917797;28;20095;-56
2022/01/03 07:25:50;;;;;;;12.15;7.97;;;;;;;;;;20915368;28;20413;-58
2022/01/03 07:35:54;;;;;;;8.00;6.55;;;;;;;;;;20914843;28;20048;-59
2022/01/03 07:46:02;;;;;;;12.60;6.97;;;;;;;;;;20913908;28;20052;-58
2022/01/03 07:56:05;;;;;;;10.48;7.28;;;;;;;;;;20912077;28;20056;-58
2022/01/03 08:06:14;;;;;;;10.05;6.75;;;;;;;;;;20912422;28;20569;-57
2022/01/03 08:16:22;;;;;;;11.52;7.35;;;;;;;;;;20911701;28;20049;-58
2022/01/03 08:26:36;;;;;;;12.40;7.70;;;;;;;;;;20910322;28;20049;-58
2022/01/03 08:36:45;;;;;;;15.20;8.98;;;;;;;;;;20911662;28;20072;-59
2022/01/03 08:46:51;;;;;;;9.73;7.38;;;;;;;;;;20911102;28;20041;-58
2022/01/03 08:57:01;;;;;;;20.27;11.20;;;;;;;;;;20910314;28;20523;-58
2022/01/03 09:07:06;;;;;;;10.70;7.33;;;;;;;;;;20921463;28;20080;-57
2022/01/03 09:17:10;;;;;;;16.30;8.90;;;;;;;;;;20926291;28;20076;-58
2022/01/03 09:37:55;;;;;;;22.80;13.70;;;;;;;;;;20832207;28;20053;-59
2022/01/03 09:47:57;;;;;;;17.27;10.07;;;;;;;;;;20829529;28;20522;-57
2022/01/03 09:57:59;;;;;;;19.88;9.90;;;;;;;;;;20829336;28;20069;-58
2022/01/03 10:08:01;;;;;;;19.23;11.35;;;;;;;;;;20903320;28;20560;-59
2022/01/03 10:18:03;;;;;;;13.70;10.30;;;;;;;;;;20920798;28;20084;-55
2022/01/03 10:28:05;;;;;;;16.23;10.18;;;;;;;;;;20919742;28;20088;-58
2022/01/03 10:38:09;;;;;;;15.63;11.15;;;;;;;;;;20894935;28;20045;-65
2022/01/03 10:48:47;;;;;;;21.58;13.13;;;;;;;;;;20879432;28;20056;-63
2022/01/03 10:58:49;;;;;;;20.63;13.50;;;;;;;;;;20698083;28;20392;-55
2022/01/03 11:19:11;;;;;;;19.23;11.63;;;;;;;;;;20711186;28;20073;-53
2022/01/03 11:29:13;;;;;;;17.65;12.27;;;;;;;;;;20789044;28;20044;-53
2022/01/03 11:39:17;;;;;;;20.83;12.02;;;;;;;;;;20869234;28;20068;-55
2022/01/03 11:49:22;;;;;;;17.02;11.60;;;;;;;;;;20869365;28;20060;-54
2022/01/03 12:03:36;;;;;;;;;;;;;;;;;;20869796;28;20052;-55
2022/01/03 12:09:47;;;;;;;14.50;11.88;;;;;;;;;;20879156;28;19924;-55
2022/01/03 12:19:49;;;;;;;19.58;14.30;;;;;;;;;;20878979;28;20489;-57
2022/01/03 12:29:50;;;;;;;20.33;14.57;;;;;;;;;;20846258;28;20053;-57
2022/01/03 12:40:03;;;;;;;25.05;17.83;;;;;;;;;;20845702;28;20108;-55
2022/01/03 12:50:20;;;;;;;24.92;16.90;;;;;;;;;;20845420;28;20061;-58
2022/01/03 13:00:41;;;;;;;23.65;17.13;;;;;;;;;;20843859;28;20080;-60
2022/01/03 13:10:43;;;;;;;25.90;17.35;;;;;;;;;;20873280;28;20049;-60
2022/01/03 13:20:55;;;;;;;24.70;17.85;;;;;;;;;;20924266;28;20052;-60
2022/01/03 13:31:04;;;;;;;22.58;16.02;;;;;;;;;;20924092;28;20045;-62
2022/01/03 13:41:11;;;;;;;20.30;16.35;;;;;;;;;;20923420;28;20124;-59
2022/01/03 13:51:13;;;;;;;24.60;16.45;;;;;;;;;;20921866;28;20083;-62
2022/01/03 14:01:16;;;;;;;25.48;17.48;;;;;;;;;;20923134;28;20413;-59
2022/01/03 14:11:26;;;;;;;22.98;15.88;;;;;;;;;;20923411;28;20049;-60
2022/01/03 14:21:32;;;;;;;23.88;16.90;;;;;;;;;;20920485;28;20052;-60
2022/01/03 14:31:49;;;;;;;21.20;17.20;;;;;;;;;;20919976;28;20045;-60
2022/01/03 14:41:56;;;;;;;23.65;16.75;;;;;;;;;;20918676;28;20079;-60
2022/01/03 14:51:58;;;;;;;21.38;16.67;;;;;;;;;;20917615;28;20056;-60
2022/01/03 15:02:01;;;;;;;25.77;17.85;;;;;;;;;;20916634;28;20114;-61
2022/01/03 15:12:08;;;;;;;24.80;16.00;;;;;;;;;;20916535;28;20064;-60
2022/01/03 15:22:12;;;;;;;20.63;14.60;;;;;;;;;;20915894;28;20140;-59
2022/01/03 15:32:16;;;;;;;24.07;12.07;;;;;;;;;;20915062;28;20048;-62
2022/01/03 15:42:20;;;;;;;26.77;15.50;;;;;;;;;;20914852;28;20485;-62
2022/01/03 15:52:22;;;;;;;23.80;13.77;;;;;;;;;;20913610;28;20048;-60
2022/01/03 16:02:25;;;;;;;13.15;8.80;;;;;;;;;;20910269;28;20045;-59
2022/01/03 16:12:29;;;;;;;16.25;10.23;;;;;;;;;;20910419;28;20092;-59
2022/01/03 16:22:31;;;;;;;18.00;11.10;;;;;;;;;;20911642;28;20045;-56
2022/01/03 16:32:32;;;;;;;17.50;12.18;;;;;;;;;;20910851;28;20056;-56
2022/01/03 16:42:35;;;;;;;16.10;11.18;;;;;;;;;;20909309;28;20048;-61
2022/01/03 16:52:37;;;;;;;14.57;10.75;;;;;;;;;;20909815;28;20049;-65
2022/01/03 17:02:40;;;;;;;21.13;12.45;;;;;;;;;;20910420;28;20056;-60
2022/01/03 17:12:42;;;;;;;18.90;12.52;;;;;;;;;;20879222;28;20074;-68
2022/01/03 17:22:44;;;;;;;22.40;12.85;;;;;;;;;;20891873;28;20045;-69
2022/01/03 17:32:46;;;;;;;16.88;12.00;;;;;;;;;;20853422;28;20083;-55
2022/01/03 17:42:49;;;;;;;21.02;13.85;;;;;;;;;;20840691;28;20128;-57
2022/01/03 17:52:52;;;;;;;24.88;16.92;;;;;;;;;;20838643;28;20049;-70
2022/01/03 18:02:54;;;;;;;19.95;15.18;;;;;;;;;;20839520;28;20467;-60
2022/01/03 18:12:59;;;;;;;22.30;15.52;;;;;;;;;;20871403;28;20056;-65
2022/01/03 18:23:01;;;;;;;22.45;15.18;;;;;;;;;;20868620;28;20053;-63
2022/01/03 18:33:03;;;;;;;24.05;17.48;;;;;;;;;;20843405;28;20207;-59
2022/01/03 18:43:05;;;;;;;25.13;15.93;;;;;;;;;;20875557;28;20060;-59
2022/01/03 18:53:07;;;;;;;26.17;16.38;;;;;;;;;;20877441;28;20547;-60
2022/01/03 19:03:09;;;;;;;27.92;18.13;;;;;;;;;;20884712;28;20117;-59
2022/01/03 19:13:11;;;;;;;22.85;16.02;;;;;;;;;;20858521;28;20053;-69
2022/01/03 19:23:13;;;;;;;27.27;18.15;;;;;;;;;;20833406;28;20049;-70
2022/01/03 19:43:18;;;;;;;37.17;23.73;;;;;;;;;;20914198;28;20079;-64
2022/01/03 19:53:21;;;;;;;33.10;24.05;;;;;;;;;;20913490;28;20084;-63
2022/01/03 20:03:23;;;;;;;32.72;22.73;;;;;;;;;;20912960;28;20052;-62
2022/01/03 20:13:25;;;;;;;36.17;22.48;;;;;;;;;;20914737;28;20084;-62
2022/01/03 20:23:27;;;;;;;41.72;25.40;;;;;;;;;;20912068;28;20045;-63
2022/01/03 20:33:29;;;;;;;38.78;26.50;;;;;;;;;;20912143;28;20055;-61
2022/01/03 20:43:31;;;;;;;44.17;26.55;;;;;;;;;;20912995;28;20076;-67
2022/01/03 20:53:33;;;;;;;40.88;25.90;;;;;;;;;;20911014;28;20088;-63
2022/01/03 21:03:34;;;;;;;43.95;27.83;;;;;;;;;;20924771;28;20103;-61
2022/01/03 21:13:36;;;;;;;43.88;28.63;;;;;;;;;;20925944;28;20084;-59
2022/01/03 21:23:39;;;;;;;78.72;62.80;;;;;;;;;;20925825;28;20045;-62
2022/01/03 21:33:41;;;;;;;36.25;26.20;;;;;;;;;;20925121;28;20148;-65
2022/01/03 21:43:42;;;;;;;30.10;20.42;;;;;;;;;;20924216;28;20110;-66
2022/01/03 21:53:44;;;;;;;33.20;22.17;;;;;;;;;;20922986;28;20438;-65
2022/01/03 22:03:46;;;;;;;29.30;19.63;;;;;;;;;;20922120;28;20053;-65
2022/01/03 22:13:48;;;;;;;24.67;18.23;;;;;;;;;;20920720;28;20135;-64
2022/01/03 22:23:50;;;;;;;49.33;30.10;;;;;;;;;;20921140;28;20056;-60
2022/01/03 22:33:52;;;;;;;42.25;24.13;;;;;;;;;;20920724;28;20547;-62
2022/01/03 22:43:55;;;;;;;40.40;26.42;;;;;;;;;;20920574;28;20049;-65
2022/01/03 22:53:58;;;;;;;68.53;40.63;;;;;;;;;;20918428;28;20091;-62
2022/01/03 23:03:59;;;;;;;35.15;25.10;;;;;;;;;;20917527;28;20049;-64
2022/01/03 23:14:03;;;;;;;24.45;17.30;;;;;;;;;;20918031;28;20504;-61
2022/01/03 23:24:05;;;;;;;20.30;15.90;;;;;;;;;;20916556;28;20489;-63
2022/01/03 23:34:11;;;;;;;40.50;26.63;;;;;;;;;;20915606;28;20052;-62
2022/01/03 23:44:13;;;;;;;19.77;14.35;;;;;;;;;;20914881;28;20045;-64
2022/01/03 23:54:15;;;;;;;37.95;24.23;;;;;;;;;;20914142;28;20088;-62
